sensor_id;sensor_type;location;lat;lon;timestamp;P1;durP1;ratioP1;P2;durP2;ratioP2
27642;SDS011;15053;48.618;10.024;2023-02-28T00:00:17;8.10;;;3.53;;
27642;SDS011;15053;48.618;10.024;2023-02-28T00:02:44;7.72;;;3.55;;
27642;SDS011;15053;48.618;10.024;2023-02-28T00:05:12;4.93;;;3.22;;
27642;SDS011;15053;48.618;10.024;2023-02-28T00:07:40;6.28;;;3.22;;
27642;SDS011;15053;48.618;10.024;2023-02-28T00:10:12;5.82;;;3.15;;
27642;SDS011;15053;48.618;10.024;2023-02-28T00:12:40;6.00;;;3.97;;
27642;SDS011;15053;48.618;10.024;2023-02-28T00:15:08;5.63;;;2.90;;
27642;SDS011;15053;48.618;10.024;2023-02-28T00:17:36;7.32;;;3.95;;
27642;SDS011;15053;48.618;10.024;2023-02-28T00:20:04;8.55;;;3.88;;
27642;SDS011;15053;48.618;10.024;2023-02-28T00:22:36;7.32;;;3.47;;
27642;SDS011;15053;48.618;10.024;2023-02-28T00:25:04;6.30;;;3.83;;
27642;SDS011;15053;48.618;10.024;2023-02-28T00:27:33;7.22;;;3.65;;
27642;SDS011;15053;48.618;10.024;2023-02-28T00:30:03;5.32;;;3.67;;
27642;SDS011;15053;48.618;10.024;2023-02-28T00:32:31;9.48;;;3.92;;
27642;SDS011;15053;48.618;10.024;2023-02-28T00:34:58;7.55;;;3.72;;
27642;SDS011;15053;48.618;10.024;2023-02-28T00:37:25;7.15;;;3.72;;
27642;SDS011;15053;48.618;10.024;2023-02-28T00:39:51;7.22;;;4.00;;
27642;SDS011;15053;48.618;10.024;2023-02-28T00:42:18;8.27;;;3.65;;
27642;SDS011;15053;48.618;10.024;2023-02-28T00:44:46;7.35;;;3.95;;
27642;SDS011;15053;48.618;10.024;2023-02-28T00:47:13;5.95;;;4.00;;
27642;SDS011;15053;48.618;10.024;2023-02-28T00:49:39;6.70;;;4.45;;
27642;SDS011;15053;48.618;10.024;2023-02-28T00:52:08;6.80;;;3.90;;
27642;SDS011;15053;48.618;10.024;2023-02-28T00:54:35;11.30;;;4.15;;
27642;SDS011;15053;48.618;10.024;2023-02-28T00:57:02;6.90;;;3.47;;
27642;SDS011;15053;48.618;10.024;2023-02-28T00:59:30;7.07;;;3.53;;
27642;SDS011;15053;48.618;10.024;2023-02-28T01:01:56;8.50;;;3.92;;
27642;SDS011;15053;48.618;10.024;2023-02-28T01:04:23;6.28;;;3.70;;
27642;SDS011;15053;48.618;10.024;2023-02-28T01:06:49;7.10;;;4.15;;
27642;SDS011;15053;48.618;10.024;2023-02-28T01:09:16;8.27;;;4.00;;
27642;SDS011;15053;48.618;10.024;2023-02-28T01:11:43;8.30;;;4.18;;
27642;SDS011;15053;48.618;10.024;2023-02-28T01:14:13;6.60;;;4.32;;
27642;SDS011;15053;48.618;10.024;2023-02-28T01:16:44;6.45;;;3.83;;
27642;SDS011;15053;48.618;10.024;2023-02-28T01:19:11;11.57;;;4.05;;
27642;SDS011;15053;48.618;10.024;2023-02-28T01:21:38;6.43;;;3.90;;
27642;SDS011;15053;48.618;10.024;2023-02-28T01:24:04;5.15;;;3.60;;
27642;SDS011;15053;48.618;10.024;2023-02-28T01:26:31;6.93;;;4.07;;
27642;SDS011;15053;48.618;10.024;2023-02-28T01:28:58;9.15;;;4.20;;
27642;SDS011;15053;48.618;10.024;2023-02-28T01:31:25;5.47;;;3.92;;
27642;SDS011;15053;48.618;10.024;2023-02-28T01:33:52;10.80;;;5.55;;
27642;SDS011;15053;48.618;10.024;2023-02-28T01:36:20;8.02;;;4.05;;
27642;SDS011;15053;48.618;10.024;2023-02-28T01:38:48;7.50;;;4.00;;
27642;SDS011;15053;48.618;10.024;2023-02-28T01:41:17;7.85;;;3.97;;
27642;SDS011;15053;48.618;10.024;2023-02-28T01:46:12;7.90;;;4.00;;
27642;SDS011;15053;48.618;10.024;2023-02-28T01:48:41;5.68;;;3.53;;
27642;SDS011;15053;48.618;10.024;2023-02-28T01:51:13;8.18;;;4.32;;
27642;SDS011;15053;48.618;10.024;2023-02-28T01:53:51;8.82;;;3.92;;
27642;SDS011;15053;48.618;10.024;2023-02-28T01:56:24;7.88;;;4.10;;
27642;SDS011;15053;48.618;10.024;2023-02-28T01:58:55;10.38;;;4.15;;
27642;SDS011;15053;48.618;10.024;2023-02-28T02:01:22;6.80;;;4.32;;
27642;SDS011;15053;48.618;10.024;2023-02-28T02:03:53;7.50;;;4.25;;
27642;SDS011;15053;48.618;10.024;2023-02-28T02:06:33;6.85;;;4.85;;
27642;SDS011;15053;48.618;10.024;2023-02-28T02:09:10;8.00;;;4.47;;
27642;SDS011;15053;48.618;10.024;2023-02-28T02:11:39;6.53;;;3.95;;
27642;SDS011;15053;48.618;10.024;2023-02-28T02:14:11;7.45;;;4.55;;
27642;SDS011;15053;48.618;10.024;2023-02-28T02:25:28;8.23;;;4.20;;
27642;SDS011;15053;48.618;10.024;2023-02-28T02:28:05;8.55;;;4.60;;
27642;SDS011;15053;48.618;10.024;2023-02-28T02:36:19;6.88;;;4.22;;
27642;SDS011;15053;48.618;10.024;2023-02-28T02:39:13;7.95;;;4.97;;
27642;SDS011;15053;48.618;10.024;2023-02-28T02:41:49;10.80;;;6.35;;
27642;SDS011;15053;48.618;10.024;2023-02-28T02:44:29;8.02;;;4.53;;
27642;SDS011;15053;48.618;10.024;2023-02-28T02:47:05;8.35;;;5.10;;
27642;SDS011;15053;48.618;10.024;2023-02-28T02:49:36;8.10;;;4.90;;
27642;SDS011;15053;48.618;10.024;2023-02-28T02:52:06;7.45;;;4.75;;
27642;SDS011;15053;48.618;10.024;2023-02-28T02:54:38;8.40;;;4.95;;
27642;SDS011;15053;48.618;10.024;2023-02-28T02:57:08;8.65;;;5.05;;
27642;SDS011;15053;48.618;10.024;2023-02-28T02:59:40;8.90;;;5.10;;
27642;SDS011;15053;48.618;10.024;2023-02-28T03:02:10;7.10;;;4.45;;
27642;SDS011;15053;48.618;10.024;2023-02-28T03:04:42;8.77;;;4.68;;
27642;SDS011;15053;48.618;10.024;2023-02-28T03:07:12;8.10;;;4.75;;
27642;SDS011;15053;48.618;10.024;2023-02-28T03:09:38;7.82;;;5.22;;
27642;SDS011;15053;48.618;10.024;2023-02-28T03:12:06;10.93;;;5.45;;
27642;SDS011;15053;48.618;10.024;2023-02-28T03:15:00;8.55;;;5.32;;
27642;SDS011;15053;48.618;10.024;2023-02-28T03:31:09;8.65;;;5.60;;
27642;SDS011;15053;48.618;10.024;2023-02-28T03:33:47;9.70;;;5.80;;
27642;SDS011;15053;48.618;10.024;2023-02-28T03:36:25;8.65;;;5.43;;
27642;SDS011;15053;48.618;10.024;2023-02-28T03:38:59;7.50;;;5.28;;
27642;SDS011;15053;48.618;10.024;2023-02-28T03:41:31;8.30;;;5.30;;
27642;SDS011;15053;48.618;10.024;2023-02-28T03:44:10;7.40;;;5.22;;
27642;SDS011;15053;48.618;10.024;2023-02-28T03:46:45;9.02;;;5.07;;
27642;SDS011;15053;48.618;10.024;2023-02-28T03:49:20;7.95;;;5.28;;
27642;SDS011;15053;48.618;10.024;2023-02-28T03:51:50;8.75;;;5.78;;
27642;SDS011;15053;48.618;10.024;2023-02-28T03:54:22;11.50;;;5.80;;
27642;SDS011;15053;48.618;10.024;2023-02-28T03:57:17;9.18;;;5.88;;
27642;SDS011;15053;48.618;10.024;2023-02-28T03:59:52;10.70;;;5.55;;
27642;SDS011;15053;48.618;10.024;2023-02-28T04:02:23;9.77;;;6.10;;
27642;SDS011;15053;48.618;10.024;2023-02-28T04:04:49;8.30;;;5.20;;
27642;SDS011;15053;48.618;10.024;2023-02-28T04:07:17;10.00;;;6.15;;
27642;SDS011;15053;48.618;10.024;2023-02-28T04:09:43;9.80;;;6.25;;
27642;SDS011;15053;48.618;10.024;2023-02-28T04:12:10;9.55;;;6.07;;
27642;SDS011;15053;48.618;10.024;2023-02-28T04:14:37;12.63;;;6.47;;
27642;SDS011;15053;48.618;10.024;2023-02-28T04:17:03;12.82;;;6.10;;
27642;SDS011;15053;48.618;10.024;2023-02-28T04:19:30;11.52;;;7.43;;
27642;SDS011;15053;48.618;10.024;2023-02-28T04:21:56;8.75;;;6.43;;
27642;SDS011;15053;48.618;10.024;2023-02-28T04:24:23;14.15;;;7.35;;
27642;SDS011;15053;48.618;10.024;2023-02-28T04:26:52;12.10;;;5.97;;
27642;SDS011;15053;48.618;10.024;2023-02-28T04:29:25;14.02;;;6.90;;
27642;SDS011;15053;48.618;10.024;2023-02-28T04:31:58;12.68;;;6.63;;
27642;SDS011;15053;48.618;10.024;2023-02-28T04:34:26;11.93;;;6.32;;
27642;SDS011;15053;48.618;10.024;2023-02-28T04:36:54;11.02;;;6.38;;
27642;SDS011;15053;48.618;10.024;2023-02-28T04:39:39;11.85;;;6.45;;
27642;SDS011;15053;48.618;10.024;2023-02-28T04:42:06;11.82;;;6.38;;
27642;SDS011;15053;48.618;10.024;2023-02-28T04:44:33;16.88;;;6.80;;
27642;SDS011;15053;48.618;10.024;2023-02-28T04:47:00;11.15;;;5.85;;
27642;SDS011;15053;48.618;10.024;2023-02-28T04:49:26;8.10;;;5.57;;
27642;SDS011;15053;48.618;10.024;2023-02-28T04:51:53;11.20;;;5.90;;
27642;SDS011;15053;48.618;10.024;2023-02-28T04:54:19;11.05;;;6.65;;
27642;SDS011;15053;48.618;10.024;2023-02-28T04:56:46;11.88;;;6.43;;
27642;SDS011;15053;48.618;10.024;2023-02-28T04:59:14;10.23;;;6.18;;
27642;SDS011;15053;48.618;10.024;2023-02-28T05:01:44;12.50;;;7.05;;
27642;SDS011;15053;48.618;10.024;2023-02-28T05:04:13;13.60;;;7.57;;
27642;SDS011;15053;48.618;10.024;2023-02-28T05:06:39;12.15;;;6.47;;
27642;SDS011;15053;48.618;10.024;2023-02-28T05:09:06;12.23;;;6.88;;
27642;SDS011;15053;48.618;10.024;2023-02-28T05:11:33;12.57;;;7.28;;
27642;SDS011;15053;48.618;10.024;2023-02-28T05:14:05;14.30;;;7.00;;
27642;SDS011;15053;48.618;10.024;2023-02-28T05:16:35;14.20;;;7.07;;
27642;SDS011;15053;48.618;10.024;2023-02-28T05:19:02;11.90;;;6.63;;
27642;SDS011;15053;48.618;10.024;2023-02-28T05:21:32;18.13;;;7.38;;
27642;SDS011;15053;48.618;10.024;2023-02-28T05:24:02;12.65;;;7.50;;
27642;SDS011;15053;48.618;10.024;2023-02-28T05:26:30;14.75;;;7.30;;
27642;SDS011;15053;48.618;10.024;2023-02-28T05:28:57;12.48;;;6.85;;
27642;SDS011;15053;48.618;10.024;2023-02-28T05:31:23;14.55;;;7.57;;
27642;SDS011;15053;48.618;10.024;2023-02-28T05:33:50;14.55;;;7.60;;
27642;SDS011;15053;48.618;10.024;2023-02-28T05:36:17;14.68;;;7.35;;
27642;SDS011;15053;48.618;10.024;2023-02-28T05:38:48;13.20;;;7.47;;
27642;SDS011;15053;48.618;10.024;2023-02-28T05:41:15;14.82;;;7.72;;
27642;SDS011;15053;48.618;10.024;2023-02-28T05:43:43;15.02;;;8.27;;
27642;SDS011;15053;48.618;10.024;2023-02-28T05:46:10;14.48;;;8.43;;
27642;SDS011;15053;48.618;10.024;2023-02-28T05:48:39;12.93;;;7.45;;
27642;SDS011;15053;48.618;10.024;2023-02-28T05:51:07;13.60;;;8.13;;
27642;SDS011;15053;48.618;10.024;2023-02-28T05:53:35;13.50;;;7.93;;
27642;SDS011;15053;48.618;10.024;2023-02-28T05:56:01;16.50;;;7.40;;
27642;SDS011;15053;48.618;10.024;2023-02-28T05:58:28;13.25;;;7.30;;
27642;SDS011;15053;48.618;10.024;2023-02-28T06:00:57;32.20;;;9.23;;
27642;SDS011;15053;48.618;10.024;2023-02-28T06:03:24;13.35;;;7.97;;
27642;SDS011;15053;48.618;10.024;2023-02-28T06:05:51;12.80;;;7.40;;
27642;SDS011;15053;48.618;10.024;2023-02-28T06:08:18;13.65;;;7.47;;
27642;SDS011;15053;48.618;10.024;2023-02-28T06:10:45;14.07;;;8.13;;
27642;SDS011;15053;48.618;10.024;2023-02-28T06:13:11;16.52;;;8.23;;
27642;SDS011;15053;48.618;10.024;2023-02-28T06:15:38;15.68;;;8.00;;
27642;SDS011;15053;48.618;10.024;2023-02-28T06:18:05;13.38;;;8.07;;
27642;SDS011;15053;48.618;10.024;2023-02-28T06:20:32;15.43;;;7.95;;
27642;SDS011;15053;48.618;10.024;2023-02-28T06:22:58;19.60;;;8.25;;
27642;SDS011;15053;48.618;10.024;2023-02-28T06:25:26;14.57;;;7.20;;
27642;SDS011;15053;48.618;10.024;2023-02-28T06:27:53;17.27;;;7.85;;
27642;SDS011;15053;48.618;10.024;2023-02-28T06:30:20;15.00;;;9.32;;
27642;SDS011;15053;48.618;10.024;2023-02-28T06:32:53;15.65;;;7.47;;
27642;SDS011;15053;48.618;10.024;2023-02-28T06:35:20;22.90;;;8.60;;
27642;SDS011;15053;48.618;10.024;2023-02-28T06:37:47;14.77;;;7.85;;
27642;SDS011;15053;48.618;10.024;2023-02-28T06:40:14;13.88;;;8.32;;
27642;SDS011;15053;48.618;10.024;2023-02-28T06:42:41;15.48;;;8.52;;
27642;SDS011;15053;48.618;10.024;2023-02-28T06:45:08;22.17;;;9.13;;
27642;SDS011;15053;48.618;10.024;2023-02-28T06:47:36;14.00;;;8.15;;
27642;SDS011;15053;48.618;10.024;2023-02-28T06:50:03;15.18;;;8.45;;
27642;SDS011;15053;48.618;10.024;2023-02-28T06:52:31;19.25;;;8.82;;
27642;SDS011;15053;48.618;10.024;2023-02-28T06:54:57;18.88;;;9.13;;
27642;SDS011;15053;48.618;10.024;2023-02-28T06:57:27;18.23;;;8.35;;
27642;SDS011;15053;48.618;10.024;2023-02-28T06:59:58;20.23;;;9.60;;
27642;SDS011;15053;48.618;10.024;2023-02-28T07:02:26;16.58;;;9.10;;
27642;SDS011;15053;48.618;10.024;2023-02-28T07:04:53;14.23;;;8.38;;
27642;SDS011;15053;48.618;10.024;2023-02-28T07:07:19;16.25;;;7.90;;
27642;SDS011;15053;48.618;10.024;2023-02-28T07:09:46;14.15;;;7.93;;
27642;SDS011;15053;48.618;10.024;2023-02-28T07:12:12;19.08;;;9.07;;
27642;SDS011;15053;48.618;10.024;2023-02-28T07:14:39;17.52;;;9.20;;
27642;SDS011;15053;48.618;10.024;2023-02-28T07:17:08;20.90;;;9.60;;
27642;SDS011;15053;48.618;10.024;2023-02-28T07:19:38;15.48;;;8.90;;
27642;SDS011;15053;48.618;10.024;2023-02-28T07:22:06;15.38;;;8.27;;
27642;SDS011;15053;48.618;10.024;2023-02-28T07:24:33;18.40;;;9.82;;
27642;SDS011;15053;48.618;10.024;2023-02-28T07:26:59;17.20;;;9.75;;
27642;SDS011;15053;48.618;10.024;2023-02-28T07:29:26;16.85;;;8.75;;
27642;SDS011;15053;48.618;10.024;2023-02-28T07:31:53;18.48;;;9.05;;
27642;SDS011;15053;48.618;10.024;2023-02-28T07:34:20;18.65;;;9.10;;
27642;SDS011;15053;48.618;10.024;2023-02-28T07:36:47;19.67;;;9.35;;
27642;SDS011;15053;48.618;10.024;2023-02-28T07:39:13;17.23;;;8.35;;
27642;SDS011;15053;48.618;10.024;2023-02-28T07:41:39;21.33;;;9.18;;
27642;SDS011;15053;48.618;10.024;2023-02-28T07:44:10;21.33;;;9.65;;
27642;SDS011;15053;48.618;10.024;2023-02-28T07:46:37;18.77;;;9.63;;
27642;SDS011;15053;48.618;10.024;2023-02-28T07:49:04;21.65;;;10.45;;
27642;SDS011;15053;48.618;10.024;2023-02-28T07:51:31;16.58;;;8.93;;
27642;SDS011;15053;48.618;10.024;2023-02-28T07:53:58;20.40;;;10.10;;
27642;SDS011;15053;48.618;10.024;2023-02-28T07:56:25;15.25;;;8.70;;
27642;SDS011;15053;48.618;10.024;2023-02-28T07:58:52;17.70;;;9.60;;
27642;SDS011;15053;48.618;10.024;2023-02-28T08:01:18;12.30;;;8.15;;
27642;SDS011;15053;48.618;10.024;2023-02-28T08:03:45;18.30;;;9.95;;
27642;SDS011;15053;48.618;10.024;2023-02-28T08:06:16;28.02;;;9.88;;
27642;SDS011;15053;48.618;10.024;2023-02-28T08:08:46;17.10;;;9.27;;
27642;SDS011;15053;48.618;10.024;2023-02-28T08:11:13;16.17;;;8.38;;
27642;SDS011;15053;48.618;10.024;2023-02-28T08:13:40;15.25;;;8.95;;
27642;SDS011;15053;48.618;10.024;2023-02-28T08:16:08;21.38;;;10.35;;
27642;SDS011;15053;48.618;10.024;2023-02-28T08:18:34;18.92;;;10.38;;
27642;SDS011;15053;48.618;10.024;2023-02-28T08:21:08;18.63;;;9.05;;
27642;SDS011;15053;48.618;10.024;2023-02-28T08:23:36;18.15;;;9.30;;
27642;SDS011;15053;48.618;10.024;2023-02-28T08:26:03;18.92;;;9.63;;
27642;SDS011;15053;48.618;10.024;2023-02-28T08:28:29;17.70;;;9.27;;
27642;SDS011;15053;48.618;10.024;2023-02-28T08:30:56;18.45;;;9.20;;
27642;SDS011;15053;48.618;10.024;2023-02-28T08:33:23;20.67;;;10.20;;
27642;SDS011;15053;48.618;10.024;2023-02-28T08:35:54;19.77;;;8.85;;
27642;SDS011;15053;48.618;10.024;2023-02-28T08:38:22;20.17;;;9.77;;
27642;SDS011;15053;48.618;10.024;2023-02-28T08:40:49;21.65;;;10.27;;
27642;SDS011;15053;48.618;10.024;2023-02-28T08:43:22;19.70;;;10.65;;
27642;SDS011;15053;48.618;10.024;2023-02-28T08:45:51;20.45;;;10.18;;
27642;SDS011;15053;48.618;10.024;2023-02-28T08:48:23;22.35;;;10.68;;
27642;SDS011;15053;48.618;10.024;2023-02-28T08:51:04;18.00;;;9.55;;
27642;SDS011;15053;48.618;10.024;2023-02-28T08:53:34;15.40;;;9.20;;
27642;SDS011;15053;48.618;10.024;2023-02-28T08:56:03;17.00;;;9.63;;
27642;SDS011;15053;48.618;10.024;2023-02-28T08:58:35;17.30;;;10.02;;
27642;SDS011;15053;48.618;10.024;2023-02-28T09:01:09;25.17;;;10.15;;
27642;SDS011;15053;48.618;10.024;2023-02-28T09:03:38;18.13;;;9.77;;
27642;SDS011;15053;48.618;10.024;2023-02-28T09:06:05;18.15;;;10.60;;
27642;SDS011;15053;48.618;10.024;2023-02-28T09:08:32;17.83;;;9.40;;
27642;SDS011;15053;48.618;10.024;2023-02-28T09:10:58;23.30;;;11.98;;
27642;SDS011;15053;48.618;10.024;2023-02-28T09:13:27;18.80;;;9.43;;
27642;SDS011;15053;48.618;10.024;2023-02-28T09:15:54;19.35;;;9.60;;
27642;SDS011;15053;48.618;10.024;2023-02-28T09:18:24;20.00;;;10.05;;
27642;SDS011;15053;48.618;10.024;2023-02-28T09:20:52;15.90;;;9.20;;
27642;SDS011;15053;48.618;10.024;2023-02-28T09:23:18;26.15;;;10.15;;
27642;SDS011;15053;48.618;10.024;2023-02-28T09:25:49;25.42;;;9.93;;
27642;SDS011;15053;48.618;10.024;2023-02-28T09:28:19;16.60;;;9.07;;
27642;SDS011;15053;48.618;10.024;2023-02-28T09:30:47;18.45;;;10.50;;
27642;SDS011;15053;48.618;10.024;2023-02-28T09:33:15;21.08;;;9.70;;
27642;SDS011;15053;48.618;10.024;2023-02-28T09:35:42;19.35;;;10.35;;
27642;SDS011;15053;48.618;10.024;2023-02-28T09:38:09;20.02;;;10.30;;
27642;SDS011;15053;48.618;10.024;2023-02-28T09:40:37;17.67;;;10.00;;
27642;SDS011;15053;48.618;10.024;2023-02-28T09:43:14;19.75;;;10.30;;
27642;SDS011;15053;48.618;10.024;2023-02-28T09:45:46;19.15;;;10.75;;
27642;SDS011;15053;48.618;10.024;2023-02-28T09:48:18;22.25;;;10.85;;
27642;SDS011;15053;48.618;10.024;2023-02-28T09:50:49;19.42;;;11.23;;
27642;SDS011;15053;48.618;10.024;2023-02-28T09:53:34;19.27;;;11.40;;
27642;SDS011;15053;48.618;10.024;2023-02-28T09:56:09;25.05;;;12.10;;
27642;SDS011;15053;48.618;10.024;2023-02-28T09:58:47;16.08;;;9.70;;
27642;SDS011;15053;48.618;10.024;2023-02-28T10:01:21;23.08;;;10.75;;
27642;SDS011;15053;48.618;10.024;2023-02-28T10:04:03;21.48;;;10.57;;
27642;SDS011;15053;48.618;10.024;2023-02-28T10:06:44;20.40;;;10.10;;
27642;SDS011;15053;48.618;10.024;2023-02-28T10:09:18;21.00;;;11.25;;
27642;SDS011;15053;48.618;10.024;2023-02-28T10:11:52;19.73;;;10.88;;
27642;SDS011;15053;48.618;10.024;2023-02-28T10:14:25;22.27;;;11.88;;
27642;SDS011;15053;48.618;10.024;2023-02-28T10:16:56;17.98;;;10.55;;
27642;SDS011;15053;48.618;10.024;2023-02-28T10:22:08;19.92;;;10.43;;
27642;SDS011;15053;48.618;10.024;2023-02-28T10:24:44;20.60;;;10.77;;
27642;SDS011;15053;48.618;10.024;2023-02-28T10:27:16;20.75;;;11.05;;
27642;SDS011;15053;48.618;10.024;2023-02-28T10:29:50;17.58;;;11.20;;
27642;SDS011;15053;48.618;10.024;2023-02-28T10:32:21;22.00;;;11.80;;
27642;SDS011;15053;48.618;10.024;2023-02-28T10:34:51;19.67;;;10.25;;
27642;SDS011;15053;48.618;10.024;2023-02-28T10:37:23;20.70;;;10.45;;
27642;SDS011;15053;48.618;10.024;2023-02-28T10:39:49;21.08;;;11.07;;
27642;SDS011;15053;48.618;10.024;2023-02-28T10:44:47;20.45;;;9.88;;
27642;SDS011;15053;48.618;10.024;2023-02-28T10:47:15;17.33;;;10.52;;
27642;SDS011;15053;48.618;10.024;2023-02-28T10:49:47;19.67;;;10.68;;
27642;SDS011;15053;48.618;10.024;2023-02-28T10:52:35;20.13;;;10.23;;
27642;SDS011;15053;48.618;10.024;2023-02-28T10:55:24;19.77;;;11.13;;
27642;SDS011;15053;48.618;10.024;2023-02-28T10:57:51;17.27;;;10.32;;
27642;SDS011;15053;48.618;10.024;2023-02-28T11:00:19;19.65;;;11.65;;
27642;SDS011;15053;48.618;10.024;2023-02-28T11:02:48;21.27;;;11.85;;
27642;SDS011;15053;48.618;10.024;2023-02-28T11:05:29;20.65;;;11.77;;
27642;SDS011;15053;48.618;10.024;2023-02-28T11:08:06;17.45;;;10.45;;
27642;SDS011;15053;48.618;10.024;2023-02-28T11:10:38;20.90;;;11.52;;
27642;SDS011;15053;48.618;10.024;2023-02-28T11:13:05;18.75;;;10.63;;
27642;SDS011;15053;48.618;10.024;2023-02-28T11:15:32;14.65;;;10.40;;
27642;SDS011;15053;48.618;10.024;2023-02-28T11:18:02;17.95;;;11.00;;
27642;SDS011;15053;48.618;10.024;2023-02-28T11:20:49;16.48;;;10.98;;
27642;SDS011;15053;48.618;10.024;2023-02-28T11:23:18;26.02;;;12.23;;
27642;SDS011;15053;48.618;10.024;2023-02-28T11:25:54;15.55;;;9.63;;
27642;SDS011;15053;48.618;10.024;2023-02-28T11:28:28;16.13;;;10.85;;
27642;SDS011;15053;48.618;10.024;2023-02-28T11:36:14;16.63;;;9.35;;
27642;SDS011;15053;48.618;10.024;2023-02-28T11:38:46;16.50;;;10.10;;
27642;SDS011;15053;48.618;10.024;2023-02-28T11:41:26;17.60;;;10.02;;
27642;SDS011;15053;48.618;10.024;2023-02-28T11:46:56;15.38;;;9.70;;
27642;SDS011;15053;48.618;10.024;2023-02-28T11:49:33;16.05;;;10.50;;
27642;SDS011;15053;48.618;10.024;2023-02-28T11:58:04;16.85;;;10.38;;
27642;SDS011;15053;48.618;10.024;2023-02-28T12:05:46;17.05;;;9.93;;
27642;SDS011;15053;48.618;10.024;2023-02-28T12:08:26;17.98;;;10.30;;
27642;SDS011;15053;48.618;10.024;2023-02-28T12:11:16;14.60;;;9.60;;
27642;SDS011;15053;48.618;10.024;2023-02-28T12:17:19;16.50;;;10.52;;
27642;SDS011;15053;48.618;10.024;2023-02-28T12:22:53;16.63;;;9.57;;
27642;SDS011;15053;48.618;10.024;2023-02-28T12:25:38;15.25;;;9.88;;
27642;SDS011;15053;48.618;10.024;2023-02-28T12:28:27;19.10;;;10.15;;
27642;SDS011;15053;48.618;10.024;2023-02-28T12:33:28;21.42;;;10.75;;
27642;SDS011;15053;48.618;10.024;2023-02-28T12:36:02;19.70;;;9.93;;
27642;SDS011;15053;48.618;10.024;2023-02-28T12:38:47;15.65;;;9.85;;
27642;SDS011;15053;48.618;10.024;2023-02-28T12:41:26;18.30;;;9.85;;
27642;SDS011;15053;48.618;10.024;2023-02-28T12:44:02;14.82;;;9.70;;
27642;SDS011;15053;48.618;10.024;2023-02-28T12:49:06;15.77;;;9.65;;
27642;SDS011;15053;48.618;10.024;2023-02-28T12:51:36;16.55;;;9.68;;
27642;SDS011;15053;48.618;10.024;2023-02-28T12:54:23;16.00;;;9.95;;
27642;SDS011;15053;48.618;10.024;2023-02-28T12:59:25;12.65;;;9.40;;
27642;SDS011;15053;48.618;10.024;2023-02-28T13:07:30;14.35;;;9.55;;
27642;SDS011;15053;48.618;10.024;2023-02-28T13:10:07;14.35;;;9.18;;
27642;SDS011;15053;48.618;10.024;2023-02-28T13:12:35;14.20;;;9.40;;
27642;SDS011;15053;48.618;10.024;2023-02-28T13:15:04;15.40;;;9.30;;
27642;SDS011;15053;48.618;10.024;2023-02-28T13:17:39;15.88;;;9.88;;
27642;SDS011;15053;48.618;10.024;2023-02-28T13:20:20;16.92;;;10.25;;
27642;SDS011;15053;48.618;10.024;2023-02-28T13:22:54;17.15;;;10.32;;
27642;SDS011;15053;48.618;10.024;2023-02-28T13:27:49;18.63;;;10.77;;
27642;SDS011;15053;48.618;10.024;2023-02-28T13:33:38;14.55;;;9.88;;
27642;SDS011;15053;48.618;10.024;2023-02-28T13:38:49;17.13;;;10.13;;
27642;SDS011;15053;48.618;10.024;2023-02-28T13:44:11;15.45;;;9.40;;
27642;SDS011;15053;48.618;10.024;2023-02-28T13:51:51;19.38;;;10.57;;
27642;SDS011;15053;48.618;10.024;2023-02-28T13:59:34;16.75;;;9.55;;
27642;SDS011;15053;48.618;10.024;2023-02-28T14:07:46;13.63;;;9.32;;
27642;SDS011;15053;48.618;10.024;2023-02-28T14:10:24;14.45;;;9.73;;
27642;SDS011;15053;48.618;10.024;2023-02-28T14:12:55;16.08;;;8.85;;
27642;SDS011;15053;48.618;10.024;2023-02-28T14:15:30;13.05;;;8.52;;
27642;SDS011;15053;48.618;10.024;2023-02-28T14:20:42;16.73;;;9.05;;
27642;SDS011;15053;48.618;10.024;2023-02-28T14:23:25;13.20;;;8.70;;
27642;SDS011;15053;48.618;10.024;2023-02-28T14:34:42;13.73;;;8.77;;
27642;SDS011;15053;48.618;10.024;2023-02-28T14:37:20;15.77;;;9.15;;
27642;SDS011;15053;48.618;10.024;2023-02-28T14:39:52;17.05;;;8.80;;
27642;SDS011;15053;48.618;10.024;2023-02-28T14:42:30;14.00;;;8.85;;
27642;SDS011;15053;48.618;10.024;2023-02-28T14:45:19;13.27;;;8.50;;
27642;SDS011;15053;48.618;10.024;2023-02-28T14:47:48;15.00;;;8.85;;
27642;SDS011;15053;48.618;10.024;2023-02-28T14:50:24;22.58;;;10.50;;
27642;SDS011;15053;48.618;10.024;2023-02-28T14:52:55;16.08;;;8.57;;
27642;SDS011;15053;48.618;10.024;2023-02-28T14:55:24;13.48;;;9.05;;
27642;SDS011;15053;48.618;10.024;2023-02-28T14:57:57;12.43;;;9.15;;
27642;SDS011;15053;48.618;10.024;2023-02-28T15:00:33;12.30;;;8.77;;
27642;SDS011;15053;48.618;10.024;2023-02-28T15:03:22;14.70;;;8.88;;
27642;SDS011;15053;48.618;10.024;2023-02-28T15:06:00;13.65;;;9.07;;
27642;SDS011;15053;48.618;10.024;2023-02-28T15:08:29;14.13;;;8.15;;
27642;SDS011;15053;48.618;10.024;2023-02-28T15:13:40;13.88;;;8.98;;
27642;SDS011;15053;48.618;10.024;2023-02-28T15:16:14;16.23;;;9.15;;
27642;SDS011;15053;48.618;10.024;2023-02-28T15:18:46;15.93;;;10.20;;
27642;SDS011;15053;48.618;10.024;2023-02-28T15:21:15;18.30;;;11.30;;
27642;SDS011;15053;48.618;10.024;2023-02-28T15:26:32;15.45;;;9.57;;
27642;SDS011;15053;48.618;10.024;2023-02-28T15:29:04;14.90;;;8.88;;
27642;SDS011;15053;48.618;10.024;2023-02-28T15:31:35;13.27;;;9.20;;
27642;SDS011;15053;48.618;10.024;2023-02-28T15:34:26;15.65;;;10.07;;
27642;SDS011;15053;48.618;10.024;2023-02-28T15:40:10;14.23;;;9.15;;
27642;SDS011;15053;48.618;10.024;2023-02-28T15:42:57;14.82;;;9.55;;
27642;SDS011;15053;48.618;10.024;2023-02-28T15:48:36;14.35;;;9.23;;
27642;SDS011;15053;48.618;10.024;2023-02-28T15:53:41;16.17;;;9.52;;
27642;SDS011;15053;48.618;10.024;2023-02-28T15:56:20;14.55;;;9.77;;
27642;SDS011;15053;48.618;10.024;2023-02-28T15:58:53;12.18;;;9.27;;
27642;SDS011;15053;48.618;10.024;2023-02-28T16:01:25;17.77;;;10.88;;
27642;SDS011;15053;48.618;10.024;2023-02-28T16:04:03;13.38;;;8.93;;
27642;SDS011;15053;48.618;10.024;2023-02-28T16:06:33;16.23;;;9.73;;
27642;SDS011;15053;48.618;10.024;2023-02-28T16:08:59;14.07;;;9.70;;
27642;SDS011;15053;48.618;10.024;2023-02-28T16:11:26;13.80;;;9.70;;
27642;SDS011;15053;48.618;10.024;2023-02-28T16:13:54;17.40;;;10.40;;
27642;SDS011;15053;48.618;10.024;2023-02-28T16:16:22;14.95;;;10.50;;
27642;SDS011;15053;48.618;10.024;2023-02-28T16:18:50;20.15;;;9.70;;
27642;SDS011;15053;48.618;10.024;2023-02-28T16:21:17;19.40;;;10.93;;
27642;SDS011;15053;48.618;10.024;2023-02-28T16:23:43;15.32;;;10.48;;
27642;SDS011;15053;48.618;10.024;2023-02-28T16:26:21;15.23;;;10.60;;
27642;SDS011;15053;48.618;10.024;2023-02-28T16:28:49;18.65;;;11.65;;
27642;SDS011;15053;48.618;10.024;2023-02-28T16:31:17;19.85;;;12.48;;
27642;SDS011;15053;48.618;10.024;2023-02-28T16:33:44;21.15;;;11.90;;
27642;SDS011;15053;48.618;10.024;2023-02-28T16:36:18;20.73;;;11.93;;
27642;SDS011;15053;48.618;10.024;2023-02-28T16:38:47;24.45;;;12.23;;
27642;SDS011;15053;48.618;10.024;2023-02-28T16:41:17;17.77;;;11.07;;
27642;SDS011;15053;48.618;10.024;2023-02-28T16:43:47;21.20;;;11.93;;
27642;SDS011;15053;48.618;10.024;2023-02-28T16:46:15;24.60;;;11.90;;
27642;SDS011;15053;48.618;10.024;2023-02-28T16:48:43;21.42;;;11.23;;